Time;durP1;ratioP1;P1;durP2;ratioP2;P2;SDS_P1;SDS_P2;PMS_P1;PMS_P2;Temp;Humidity;BMP_temperature;BMP_pressure;BME280_temperature;BME280_humidity;BME280_pressure;Samples;Min_cycle;Max_cycle;Signal;HPM_P1;HPM_P2
2023/06/16 00:00:11;;;;;;;6.20;6.00;;;18.70;99.90;;;;;;4964906;28;20186;-77
2023/06/16 00:02:41;;;;;;;7.33;6.70;;;18.70;99.90;;;;;;4961764;28;20451;-76
2023/06/16 00:05:10;;;;;;;7.20;6.67;;;18.80;99.90;;;;;;4976648;28;20417;-76
2023/06/16 00:07:36;;;;;;;7.07;6.60;;;18.80;99.90;;;;;;4961519;28;20792;-77
2023/06/16 00:10:03;;;;;;;6.97;6.50;;;18.90;99.90;;;;;;4969251;28;20857;-77
2023/06/16 00:12:29;;;;;;;6.30;6.10;;;18.90;99.90;;;;;;4972700;28;20465;-77
2023/06/16 00:14:54;;;;;;;6.60;6.20;;;18.90;99.90;;;;;;4975109;28;20432;-77
2023/06/16 00:17:20;;;;;;;6.93;6.30;;;18.80;99.90;;;;;;4989599;28;20203;-76
2023/06/16 00:19:47;;;;;;;6.57;6.07;;;18.90;99.90;;;;;;4973245;28;20209;-76
2023/06/16 00:22:12;;;;;;;6.90;6.43;;;18.80;99.90;;;;;;4963301;28;20453;-76
2023/06/16 00:24:38;;;;;;;6.70;6.17;;;18.70;99.90;;;;;;4971818;28;20427;-77
2023/06/16 00:27:04;;;;;;;10.60;7.13;;;18.80;99.90;;;;;;4983830;28;20749;-77
2023/06/16 00:29:30;;;;;;;7.07;6.53;;;18.70;99.90;;;;;;4996074;28;20189;-77
2023/06/16 00:31:55;;;;;;;6.43;5.90;;;18.70;99.90;;;;;;4966294;28;20465;-77
2023/06/16 00:34:21;;;;;;;7.50;6.93;;;18.70;99.90;;;;;;4964360;28;20249;-77
2023/06/16 00:36:46;;;;;;;6.50;6.20;;;18.60;99.90;;;;;;4959989;28;20194;-77
2023/06/16 00:39:12;;;;;;;8.03;7.43;;;18.60;99.90;;;;;;4949756;28;20186;-77
2023/06/16 00:41:37;;;;;;;6.30;6.00;;;18.50;99.90;;;;;;4971292;28;20264;-78
2023/06/16 00:44:04;;;;;;;6.80;6.30;;;18.50;99.90;;;;;;4980610;28;20188;-76
2023/06/16 00:46:35;;;;;;;6.00;5.77;;;18.50;99.90;;;;;;4964803;28;20182;-76
2023/06/16 00:49:02;;;;;;;6.90;6.27;;;18.40;99.90;;;;;;4950422;28;20413;-76
2023/06/16 00:51:30;;;;;;;6.70;6.40;;;18.40;99.90;;;;;;4955467;28;20462;-77
2023/06/16 00:53:56;;;;;;;6.77;6.37;;;18.40;99.90;;;;;;4939748;28;20423;-77
2023/06/16 00:56:23;;;;;;;7.03;6.43;;;18.40;99.90;;;;;;4957206;28;20400;-77
2023/06/16 00:58:51;;;;;;;6.87;6.40;;;18.30;99.90;;;;;;4948554;28;21362;-77
2023/06/16 01:01:17;;;;;;;6.30;6.00;;;18.20;99.90;;;;;;4956199;28;20451;-77
2023/06/16 01:03:44;;;;;;;5.97;5.67;;;18.30;99.90;;;;;;4945602;28;20651;-76
2023/06/16 01:06:29;;;;;;;7.40;7.10;;;18.30;99.90;;;;;;4955884;28;20446;-77
2023/06/16 01:09:03;;;;;;;6.07;5.70;;;18.30;99.90;;;;;;4952424;28;20433;-77
2023/06/16 01:11:57;;;;;;;6.33;5.93;;;18.20;99.90;;;;;;4945914;28;20598;-77
2023/06/16 01:14:37;;;;;;;7.20;6.70;;;18.30;99.90;;;;;;4950314;28;20473;-77
2023/06/16 01:17:05;;;;;;;7.03;6.43;;;18.20;99.90;;;;;;4957443;28;20530;-76
2023/06/16 01:19:44;;;;;;;7.00;6.50;;;18.10;99.90;;;;;;4954368;28;20452;-75
2023/06/16 01:22:17;;;;;;;7.40;6.90;;;18.00;99.90;;;;;;4953983;28;20545;-75
2023/06/16 01:24:43;;;;;;;6.60;6.30;;;18.00;99.90;;;;;;4955994;28;20426;-75
2023/06/16 01:27:13;;;;;;;6.63;6.13;;;17.90;99.90;;;;;;4951923;28;20441;-77
2023/06/16 01:29:40;;;;;;;7.10;6.70;;;17.90;99.90;;;;;;4958857;28;20431;-76
2023/06/16 01:32:08;;;;;;;7.20;6.80;;;17.90;99.90;;;;;;4954299;28;20514;-76
2023/06/16 01:34:35;;;;;;;6.67;6.20;;;18.00;99.90;;;;;;4972786;28;20453;-75
2023/06/16 01:37:02;;;;;;;7.03;6.60;;;18.00;99.90;;;;;;4969726;28;20467;-77
2023/06/16 01:39:29;;;;;;;7.00;6.43;;;17.80;99.90;;;;;;4976125;28;20508;-77
2023/06/16 01:41:55;;;;;;;7.30;6.80;;;17.70;99.90;;;;;;4963833;28;20433;-76
2023/06/16 01:44:22;;;;;;;7.77;7.30;;;17.70;99.90;;;;;;4969993;28;20861;-77
2023/06/16 01:46:48;;;;;;;6.77;6.37;;;17.60;99.90;;;;;;4971465;28;20466;-76
2023/06/16 01:49:14;;;;;;;6.60;6.20;;;17.60;99.90;;;;;;4983567;28;20457;-77
2023/06/16 01:51:40;;;;;;;6.47;6.17;;;17.50;99.90;;;;;;4970770;28;20472;-77
2023/06/16 01:54:06;;;;;;;6.97;6.67;;;17.40;99.90;;;;;;4984406;28;20444;-75
2023/06/16 01:56:31;;;;;;;6.53;6.10;;;17.40;99.90;;;;;;4974406;28;20196;-77
2023/06/16 01:58:58;;;;;;;6.50;6.20;;;17.40;99.90;;;;;;4973040;28;20186;-77
2023/06/16 02:01:33;;;;;;;7.23;6.83;;;17.30;99.90;;;;;;4971370;28;20197;-77
2023/06/16 02:04:08;;;;;;;8.93;7.00;;;17.30;99.90;;;;;;4971911;28;20429;-77
2023/06/16 02:06:40;;;;;;;7.60;7.10;;;17.30;99.90;;;;;;4971826;28;20576;-77
2023/06/16 02:09:09;;;;;;;7.17;6.57;;;17.40;99.90;;;;;;4996887;28;20436;-76
2023/06/16 02:11:35;;;;;;;6.87;6.30;;;17.40;99.90;;;;;;4965558;28;20853;-77
2023/06/16 02:14:02;;;;;;;6.30;5.90;;;17.40;99.90;;;;;;4973322;28;20572;-77
2023/06/16 02:16:29;;;;;;;6.50;5.90;;;17.30;99.90;;;;;;4992263;28;20444;-77
2023/06/16 02:18:55;;;;;;;6.63;6.10;;;17.30;99.90;;;;;;4968429;28;20448;-77
2023/06/16 02:21:21;;;;;;;7.03;6.63;;;17.20;99.90;;;;;;4964613;28;20815;-77
2023/06/16 02:23:47;;;;;;;7.47;7.03;;;17.10;99.90;;;;;;4962566;28;20457;-76
2023/06/16 02:26:12;;;;;;;7.40;7.00;;;17.10;99.90;;;;;;4965378;28;20773;-76
2023/06/16 02:28:38;;;;;;;7.47;6.97;;;17.00;99.90;;;;;;4965553;28;20236;-76
2023/06/16 02:31:04;;;;;;;6.13;5.83;;;16.90;99.90;;;;;;4963967;28;20186;-75
2023/06/16 02:33:29;;;;;;;6.40;6.17;;;16.90;99.90;;;;;;4972478;28;20200;-75
2023/06/16 02:35:55;;;;;;;7.00;6.70;;;16.90;99.90;;;;;;4973305;28;20515;-78
2023/06/16 02:38:20;;;;;;;6.93;6.43;;;16.90;99.90;;;;;;4986059;28;20190;-78
2023/06/16 02:40:46;;;;;;;8.60;6.77;;;16.80;99.90;;;;;;4971626;28;20213;-76
2023/06/16 02:43:11;;;;;;;13.67;6.57;;;16.80;99.90;;;;;;4971599;28;20210;-76
2023/06/16 02:45:37;;;;;;;7.83;7.33;;;16.80;99.90;;;;;;4968990;28;20858;-77
2023/06/16 02:48:03;;;;;;;7.80;6.57;;;16.70;99.90;;;;;;4974163;28;20186;-77
2023/06/16 02:50:30;;;;;;;6.80;6.40;;;16.70;99.90;;;;;;4975839;28;20515;-77
2023/06/16 02:52:57;;;;;;;6.47;6.17;;;16.50;99.90;;;;;;4974446;28;20220;-76
2023/06/16 02:55:23;;;;;;;7.30;6.80;;;16.50;99.90;;;;;;4969142;28;20513;-77
2023/06/16 02:57:48;;;;;;;6.83;6.33;;;16.60;99.90;;;;;;4987268;28;20540;-77
2023/06/16 03:00:16;;;;;;;7.30;6.80;;;16.60;99.90;;;;;;4973291;28;20193;-77
2023/06/16 03:02:42;;;;;;;8.00;7.33;;;16.50;99.90;;;;;;4964803;28;20193;-76
2023/06/16 03:05:07;;;;;;;6.70;6.30;;;16.30;99.90;;;;;;4973482;28;20842;-77
2023/06/16 03:07:34;;;;;;;7.23;6.83;;;16.40;99.90;;;;;;4969314;28;20537;-77
2023/06/16 03:10:01;;;;;;;7.90;7.50;;;16.40;99.90;;;;;;4970594;28;20415;-76
2023/06/16 03:12:27;;;;;;;7.30;6.90;;;16.40;99.90;;;;;;4979432;28;20473;-77
2023/06/16 03:14:52;;;;;;;7.43;6.93;;;16.50;99.90;;;;;;4966656;28;20981;-76
2023/06/16 03:17:20;;;;;;;7.90;7.10;;;16.50;99.90;;;;;;4984950;28;20196;-77
2023/06/16 03:19:49;;;;;;;7.73;7.30;;;16.50;99.90;;;;;;4973676;28;20215;-77
2023/06/16 03:22:15;;;;;;;7.73;7.13;;;16.50;99.90;;;;;;4966780;28;20610;-77
2023/06/16 03:24:43;;;;;;;7.93;7.17;;;16.50;99.90;;;;;;4971489;28;20692;-76
2023/06/16 03:27:09;;;;;;;6.50;6.30;;;16.40;99.90;;;;;;4972123;28;20965;-77
2023/06/16 03:29:36;;;;;;;6.57;6.20;;;16.50;99.90;;;;;;4972546;28;20448;-77
2023/06/16 03:32:03;;;;;;;7.07;6.50;;;16.40;99.90;;;;;;4969080;28;20549;-77
2023/06/16 03:34:29;;;;;;;7.33;6.80;;;16.40;99.90;;;;;;4971733;28;20452;-77
2023/06/16 03:36:56;;;;;;;7.30;6.63;;;16.50;99.90;;;;;;4972204;28;20433;-77
2023/06/16 03:39:22;;;;;;;7.83;7.07;;;16.50;99.90;;;;;;4971341;28;20452;-78
2023/06/16 03:41:48;;;;;;;7.83;7.23;;;16.40;99.90;;;;;;4978729;28;20433;-77
2023/06/16 03:44:13;;;;;;;8.03;7.43;;;16.40;99.90;;;;;;4977741;28;20209;-78
2023/06/16 03:46:39;;;;;;;7.63;6.93;;;16.40;99.90;;;;;;4971059;28;20186;-78
2023/06/16 03:49:04;;;;;;;8.03;6.47;;;16.40;99.90;;;;;;4970362;28;20233;-77
2023/06/16 03:51:31;;;;;;;7.00;6.63;;;16.40;99.90;;;;;;4970862;28;20205;-77
2023/06/16 03:53:57;;;;;;;8.40;7.67;;;16.40;99.90;;;;;;4970116;28;20232;-77
2023/06/16 03:56:23;;;;;;;7.07;6.60;;;16.30;99.90;;;;;;4974755;28;20428;-77
2023/06/16 03:58:49;;;;;;;7.43;6.83;;;16.30;99.90;;;;;;4970641;28;21039;-76
2023/06/16 04:01:21;;;;;;;6.90;6.60;;;16.20;99.90;;;;;;4976074;28;20182;-77
2023/06/16 04:03:47;;;;;;;7.47;6.93;;;16.20;99.90;;;;;;4977208;28;20461;-77
2023/06/16 04:06:12;;;;;;;6.70;6.30;;;16.30;99.90;;;;;;4983491;28;20483;-77
2023/06/16 04:08:38;;;;;;;7.97;7.47;;;16.30;99.90;;;;;;4984201;28;20440;-77
2023/06/16 04:11:05;;;;;;;7.40;6.70;;;16.30;99.90;;;;;;4969022;28;20197;-77
2023/06/16 04:13:31;;;;;;;7.47;6.77;;;16.40;99.90;;;;;;4969358;28;20173;-77
2023/06/16 04:15:56;;;;;;;7.23;6.57;;;16.40;99.90;;;;;;4968601;28;20460;-77
2023/06/16 04:18:22;;;;;;;7.90;7.20;;;16.40;99.90;;;;;;4972614;28;20212;-77
2023/06/16 04:20:47;;;;;;;7.70;7.00;;;16.50;99.90;;;;;;4969461;28;20273;-77
2023/06/16 04:23:13;;;;;;;7.70;7.20;;;16.40;99.90;;;;;;4969144;28;20197;-77
2023/06/16 04:25:40;;;;;;;7.27;6.90;;;16.60;99.90;;;;;;4970282;28;20529;-77
2023/06/16 04:28:07;;;;;;;8.07;7.47;;;16.60;99.90;;;;;;4973422;28;20269;-77
2023/06/16 04:30:33;;;;;;;18.70;8.60;;;16.70;99.90;;;;;;4971286;28;20794;-77
2023/06/16 04:33:01;;;;;;;8.10;7.30;;;16.70;99.90;;;;;;4973012;28;20480;-77
2023/06/16 04:35:31;;;;;;;7.87;7.23;;;16.70;99.90;;;;;;4966015;28;20956;-76
2023/06/16 04:37:57;;;;;;;6.60;6.30;;;16.80;99.90;;;;;;4975876;28;21004;-77
2023/06/16 04:40:23;;;;;;;7.77;7.20;;;17.00;99.90;;;;;;4967354;28;20552;-76
2023/06/16 04:42:49;;;;;;;7.07;6.47;;;17.10;99.90;;;;;;4974225;28;20697;-76
2023/06/16 04:45:15;;;;;;;7.37;7.03;;;17.20;99.90;;;;;;4968373;28;21078;-77
2023/06/16 04:47:42;;;;;;;7.13;6.73;;;17.30;99.90;;;;;;4972936;28;20257;-76
2023/06/16 04:50:09;;;;;;;7.63;7.13;;;17.30;99.90;;;;;;4968351;28;20800;-77
2023/06/16 04:52:36;;;;;;;7.53;7.03;;;17.50;99.90;;;;;;4976013;28;20541;-77
2023/06/16 04:55:02;;;;;;;10.00;6.70;;;17.60;99.90;;;;;;4969715;28;20467;-75
2023/06/16 04:57:28;;;;;;;7.03;6.53;;;17.80;99.90;;;;;;4971789;28;20519;-79
2023/06/16 04:59:53;;;;;;;10.77;8.60;;;17.90;99.90;;;;;;4964589;28;20972;-77
2023/06/16 05:02:19;;;;;;;8.00;7.40;;;18.20;99.90;;;;;;4972050;28;20178;-77
2023/06/16 05:04:45;;;;;;;16.80;7.60;;;18.40;99.90;;;;;;4974703;28;20208;-77
2023/06/16 05:07:11;;;;;;;7.10;6.43;;;18.60;99.90;;;;;;4978858;28;20182;-78
2023/06/16 05:09:38;;;;;;;7.30;6.87;;;18.80;99.90;;;;;;4974978;28;20196;-78
2023/06/16 05:12:05;;;;;;;7.17;6.60;;;18.90;99.90;;;;;;4977561;28;20493;-77
2023/06/16 05:14:31;;;;;;;20.70;8.60;;;19.00;99.90;;;;;;4970679;28;20516;-77
2023/06/16 05:16:56;;;;;;;7.93;6.77;;;19.20;99.90;;;;;;4978013;28;21113;-77
2023/06/16 05:19:22;;;;;;;7.37;6.60;;;19.50;99.90;;;;;;4972825;28;20230;-78
2023/06/16 05:21:48;;;;;;;6.87;6.30;;;19.70;99.90;;;;;;4977147;28;20189;-78
2023/06/16 05:24:14;;;;;;;7.97;7.20;;;20.00;99.90;;;;;;4970304;28;20665;-78
2023/06/16 05:26:40;;;;;;;7.90;7.10;;;20.40;99.90;;;;;;4972928;28;20467;-78
2023/06/16 05:29:06;;;;;;;7.60;6.27;;;20.80;99.90;;;;;;4973435;28;20200;-77
2023/06/16 05:31:31;;;;;;;13.17;12.17;;;21.10;99.90;;;;;;4974541;28;20457;-77
2023/06/16 05:33:57;;;;;;;7.40;7.00;;;21.40;99.90;;;;;;4975640;28;20237;-78
2023/06/16 05:36:28;;;;;;;6.87;6.57;;;21.50;99.80;;;;;;4972546;28;20400;-78
2023/06/16 05:38:55;;;;;;;8.00;7.30;;;21.80;99.20;;;;;;4974950;28;20200;-77
2023/06/16 05:41:24;;;;;;;6.90;6.50;;;22.10;98.40;;;;;;4990065;28;20471;-77
2023/06/16 05:43:51;;;;;;;7.60;7.00;;;22.10;96.80;;;;;;4978582;28;20437;-77
2023/06/16 05:46:17;;;;;;;12.00;7.20;;;22.00;96.50;;;;;;4974121;28;20759;-77
2023/06/16 05:48:43;;;;;;;6.70;6.40;;;21.80;96.10;;;;;;4959431;28;20596;-75
2023/06/16 05:51:09;;;;;;;7.73;7.23;;;22.00;95.00;;;;;;4968000;28;20306;-78
2023/06/16 05:53:35;;;;;;;6.30;6.00;;;22.30;93.60;;;;;;4970224;28;20860;-78
2023/06/16 05:56:00;;;;;;;7.33;6.93;;;22.50;92.00;;;;;;4972504;28;20204;-78
2023/06/16 05:58:26;;;;;;;7.83;7.33;;;23.00;90.20;;;;;;4968751;28;20573;-79
2023/06/16 06:00:51;;;;;;;7.87;7.20;;;23.50;86.60;;;;;;4970045;28;20993;-77
2023/06/16 06:03:20;;;;;;;6.97;6.57;;;23.90;81.70;;;;;;4972319;28;20537;-78
2023/06/16 06:05:45;;;;;;;8.37;7.67;;;24.10;81.00;;;;;;4968801;28;20220;-78
2023/06/16 06:08:11;;;;;;;7.17;6.93;;;24.20;76.40;;;;;;4968315;28;20540;-77
2023/06/16 06:10:36;;;;;;;8.47;6.80;;;24.20;77.30;;;;;;4975732;28;20193;-78
2023/06/16 06:13:03;;;;;;;6.43;6.03;;;24.50;76.70;;;;;;4965854;28;20617;-78
2023/06/16 06:15:29;;;;;;;6.63;6.23;;;24.50;76.40;;;;;;4970414;28;20189;-77
2023/06/16 06:17:54;;;;;;;6.70;6.30;;;24.90;74.70;;;;;;4970328;28;20964;-78
2023/06/16 06:20:21;;;;;;;6.73;6.43;;;25.10;73.30;;;;;;4968284;28;20209;-78
2023/06/16 06:22:46;;;;;;;6.60;6.20;;;25.30;67.70;;;;;;4965872;28;20381;-79
2023/06/16 06:25:13;;;;;;;7.37;6.90;;;26.00;63.40;;;;;;4968295;28;20831;-78
2023/06/16 06:27:39;;;;;;;11.67;6.67;;;26.40;60.90;;;;;;4970380;28;20193;-76
2023/06/16 06:30:08;;;;;;;8.03;7.10;;;26.70;59.00;;;;;;4968059;28;20839;-78
2023/06/16 06:32:34;;;;;;;6.80;6.33;;;27.10;55.60;;;;;;4961797;28;20481;-78
2023/06/16 06:34:59;;;;;;;7.03;6.63;;;27.60;53.50;;;;;;4957325;28;20589;-78
2023/06/16 06:37:30;;;;;;;6.17;5.87;;;28.10;50.80;;;;;;4971871;28;20178;-77
2023/06/16 06:39:56;;;;;;;5.90;5.50;;;28.30;50.00;;;;;;4967141;28;20190;-78
2023/06/16 06:42:22;;;;;;;5.37;5.07;;;28.70;49.30;;;;;;4970988;28;20903;-77
2023/06/16 06:44:48;;;;;;;6.07;5.70;;;29.00;48.00;;;;;;4969089;28;20440;-77
2023/06/16 06:47:14;;;;;;;6.40;6.10;;;29.00;47.40;;;;;;4989063;28;20424;-79
2023/06/16 06:49:41;;;;;;;6.33;6.03;;;;;;;;;;4970178;28;21211;-80
2023/06/16 06:52:07;;;;;;;5.67;5.33;;;30.10;45.70;;;;;;4990496;28;20576;-79
2023/06/16 06:54:33;;;;;;;5.53;5.27;;;30.40;45.60;;;;;;4962043;28;20734;-79
2023/06/16 06:56:58;;;;;;;6.17;5.57;;;30.50;44.80;;;;;;4972719;28;20492;-79
2023/06/16 06:59:24;;;;;;;14.60;6.80;;;30.80;43.90;;;;;;4964980;28;20400;-79
2023/06/16 07:01:49;;;;;;;5.80;5.60;;;30.40;43.00;;;;;;4987404;28;20261;-79
2023/06/16 07:04:15;;;;;;;5.57;5.37;;;30.80;43.60;;;;;;4968671;28;20764;-80
2023/06/16 07:06:40;;;;;;;5.50;5.33;;;31.30;42.20;;;;;;4984274;28;20196;-79
2023/06/16 07:09:09;;;;;;;5.27;5.03;;;31.50;42.00;;;;;;4968450;28;20197;-79
2023/06/16 07:11:35;;;;;;;6.40;5.87;;;31.60;41.60;;;;;;4964902;28;20206;-80
2023/06/16 07:14:01;;;;;;;5.23;4.93;;;31.80;41.00;;;;;;4968936;28;20923;-80
2023/06/16 07:16:28;;;;;;;5.73;4.93;;;31.90;40.80;;;;;;4964330;28;20221;-80
2023/06/16 07:18:53;;;;;;;5.43;5.13;;;31.60;40.20;;;;;;4989702;28;20455;-79
2023/06/16 07:21:19;;;;;;;5.00;4.70;;;31.90;40.30;;;;;;4982704;28;20468;-80
2023/06/16 07:23:45;;;;;;;5.07;4.97;;;32.20;39.50;;;;;;4978303;28;20407;-79
2023/06/16 07:26:10;;;;;;;5.60;5.00;;;32.30;38.70;;;;;;4981076;28;20212;-79
2023/06/16 07:28:37;;;;;;;5.13;4.93;;;32.80;38.20;;;;;;4981771;28;20189;-79
2023/06/16 07:31:03;;;;;;;12.07;6.00;;;33.30;38.20;;;;;;4970966;28;20225;-80
2023/06/16 07:33:28;;;;;;;5.43;5.13;;;33.60;37.10;;;;;;4971867;28;20519;-80
2023/06/16 07:35:54;;;;;;;4.93;4.63;;;33.30;36.80;;;;;;4972569;28;20304;-79
2023/06/16 07:38:20;;;;;;;5.07;4.77;;;32.40;36.70;;;;;;4969234;28;20553;-78
2023/06/16 07:40:46;;;;;;;4.80;4.70;;;32.60;37.00;;;;;;4981839;28;20264;-78
2023/06/16 07:43:11;;;;;;;4.87;4.63;;;32.80;36.70;;;;;;4966108;28;20958;-78
2023/06/16 07:45:37;;;;;;;4.83;4.70;;;32.80;36.30;;;;;;4979478;28;21103;-80
2023/06/16 07:48:04;;;;;;;4.43;4.33;;;32.70;35.70;;;;;;4972128;28;20194;-80
2023/06/16 07:50:30;;;;;;;5.60;5.20;;;32.90;35.70;;;;;;4962564;28;20490;-78
2023/06/16 07:52:56;;;;;;;5.27;4.90;;;33.20;35.80;;;;;;4972410;28;20486;-79
2023/06/16 07:55:21;;;;;;;5.20;4.80;;;33.90;35.60;;;;;;4966566;28;20577;-79
2023/06/16 07:57:47;;;;;;;6.67;6.00;;;34.60;36.60;;;;;;4969682;28;20683;-80
2023/06/16 08:00:14;;;;;;;4.03;3.93;;;34.60;37.20;;;;;;4985636;28;20197;-79
2023/06/16 08:02:43;;;;;;;4.27;4.17;;;34.50;38.10;;;;;;4966302;28;20324;-80
2023/06/16 08:05:11;;;;;;;4.80;4.60;;;;;;;;;;4978837;28;20440;-80
2023/06/16 08:07:37;;;;;;;6.53;4.83;;;35.50;33.90;;;;;;4974420;28;21034;-80
2023/06/16 08:10:04;;;;;;;4.37;4.27;;;35.90;34.20;;;;;;4962257;28;20480;-78
2023/06/16 08:12:30;;;;;;;5.00;4.70;;;34.70;32.80;;;;;;4965508;28;20828;-78
2023/06/16 08:14:56;;;;;;;3.63;3.63;;;34.80;32.50;;;;;;4969777;28;20937;-80
2023/06/16 08:17:22;;;;;;;4.37;4.27;;;35.40;32.50;;;;;;4969347;28;20475;-79
2023/06/16 08:19:48;;;;;;;8.50;3.73;;;35.60;31.90;;;;;;4971807;28;20441;-78
2023/06/16 08:22:13;;;;;;;4.00;3.93;;;34.50;32.20;;;;;;4969943;28;20225;-79
2023/06/16 08:24:39;;;;;;;4.53;4.53;;;34.90;32.50;;;;;;4973732;28;20445;-78
2023/06/16 08:27:06;;;;;;;4.03;3.93;;;35.10;31.50;;;;;;4965134;28;20190;-78
2023/06/16 08:29:33;;;;;;;9.87;9.10;;;35.50;31.80;;;;;;4969272;28;20181;-78
2023/06/16 08:31:58;;;;;;;4.30;4.10;;;35.30;31.60;;;;;;4967210;28;20498;-78
2023/06/16 08:34:24;;;;;;;4.10;3.80;;;35.30;30.70;;;;;;4969175;28;20863;-78
2023/06/16 08:36:50;;;;;;;4.30;4.23;;;35.80;31.50;;;;;;4966686;28;20537;-78
2023/06/16 08:39:16;;;;;;;4.30;4.00;;;35.90;31.60;;;;;;4970216;28;20372;-78
2023/06/16 08:41:42;;;;;;;4.13;4.03;;;35.60;31.30;;;;;;4964728;28;20185;-78
2023/06/16 08:44:10;;;;;;;3.87;3.77;;;33.70;31.20;;;;;;4971727;28;20475;-78
2023/06/16 08:46:36;;;;;;;4.53;4.30;;;34.30;31.40;;;;;;4969913;28;20440;-79
2023/06/16 08:49:03;;;;;;;5.50;4.30;;;34.50;31.10;;;;;;4976664;28;20859;-77
2023/06/16 08:51:33;;;;;;;4.97;4.50;;;33.60;31.50;;;;;;4972513;28;20921;-78
2023/06/16 08:54:01;;;;;;;5.10;4.70;;;33.40;31.70;;;;;;4973170;28;20601;-78
2023/06/16 08:56:32;;;;;;;4.20;4.03;;;33.20;31.80;;;;;;4975167;28;20514;-79
2023/06/16 08:59:01;;;;;;;4.90;4.60;;;34.00;32.00;;;;;;4972593;28;20814;-77
2023/06/16 09:01:28;;;;;;;4.40;4.00;;;34.50;31.70;;;;;;4968441;28;20995;-77
2023/06/16 09:03:55;;;;;;;5.03;4.73;;;34.80;31.70;;;;;;4969224;28;20465;-78
2023/06/16 09:06:21;;;;;;;4.30;4.13;;;34.50;31.10;;;;;;4969278;28;20491;-78
2023/06/16 09:08:47;;;;;;;4.20;4.00;;;34.90;31.40;;;;;;4971081;28;20531;-78
2023/06/16 09:11:24;;;;;;;4.90;4.70;;;35.50;31.00;;;;;;4974277;28;20528;-78
2023/06/16 09:13:51;;;;;;;4.40;4.30;;;35.90;30.60;;;;;;4975578;28;20342;-78
2023/06/16 09:16:19;;;;;;;4.10;3.90;;;35.90;30.80;;;;;;4979354;28;20434;-78
2023/06/16 09:18:44;;;;;;;4.90;4.50;;;36.20;30.70;;;;;;4968491;28;20968;-79
2023/06/16 09:21:22;;;;;;;4.67;4.47;;;34.80;30.70;;;;;;4981406;28;20503;-78
2023/06/16 09:23:57;;;;;;;4.83;4.60;;;35.40;31.00;;;;;;4973780;28;20197;-79
2023/06/16 09:26:24;;;;;;;6.50;6.20;;;36.20;30.70;;;;;;4967459;28;20425;-80
2023/06/16 09:28:51;;;;;;;5.17;4.83;;;35.70;30.40;;;;;;4988331;28;20409;-81
2023/06/16 09:31:37;;;;;;;5.07;4.77;;;36.50;30.50;;;;;;4984735;28;20448;-82
2023/06/16 09:34:05;;;;;;;4.50;4.40;;;36.70;30.20;;;;;;4967031;28;20469;-82
2023/06/16 09:36:31;;;;;;;4.63;4.27;;;37.40;30.20;;;;;;4947059;28;20557;-81
2023/06/16 09:38:57;;;;;;;3.87;3.60;;;37.90;30.60;;;;;;4952855;28;20430;-80
2023/06/16 09:41:23;;;;;;;4.63;4.20;;;37.80;30.00;;;;;;4951474;28;20452;-80
2023/06/16 09:43:50;;;;;;;4.93;4.67;;;36.90;30.10;;;;;;4947832;28;20183;-80
2023/06/16 09:46:15;;;;;;;4.53;4.43;;;37.40;30.10;;;;;;4944708;28;20618;-80
2023/06/16 09:48:48;;;;;;;4.13;3.93;;;38.00;29.80;;;;;;4959542;28;20470;-80
2023/06/16 09:51:23;;;;;;;3.90;3.80;;;38.20;30.00;;;;;;4953267;28;20194;-80
2023/06/16 09:53:50;;;;;;;4.27;4.17;;;38.30;29.50;;;;;;4958645;28;20555;-82
2023/06/16 09:56:19;;;;;;;4.30;4.20;;;38.80;29.40;;;;;;4952895;28;20431;-79
2023/06/16 09:58:49;;;;;;;5.30;5.00;;;39.00;29.10;;;;;;4949931;28;20461;-78
2023/06/16 10:01:17;;;;;;;4.33;4.23;;;38.40;28.90;;;;;;4939044;28;20492;-80
2023/06/16 10:03:48;;;;;;;4.60;4.47;;;38.10;29.30;;;;;;4948572;28;20804;-79
2023/06/16 10:06:18;;;;;;;4.37;4.27;;;38.80;29.20;;;;;;4947533;28;20510;-79
2023/06/16 10:08:45;;;;;;;4.03;3.93;;;38.80;29.20;;;;;;4948566;28;20490;-77
2023/06/16 10:11:14;;;;;;;4.27;4.07;;;39.10;29.20;;;;;;4953718;28;20438;-78
2023/06/16 10:13:44;;;;;;;4.60;4.50;;;39.40;29.10;;;;;;4954275;28;20669;-79
2023/06/16 10:16:12;;;;;;;4.83;4.73;;;39.90;29.20;;;;;;4957578;28;20422;-79
2023/06/16 10:18:39;;;;;;;4.33;4.10;;;;;;;;;;4940718;28;20590;-83
2023/06/16 10:21:06;;;;;;;4.20;4.10;;;;;;;;;;4947623;28;20485;-80
2023/06/16 10:23:32;;;;;;;7.00;6.53;;;;;;;;;;4957140;28;20537;-81
2023/06/16 10:25:58;;;;;;;5.13;4.47;;;;;;;;;;4934897;28;20461;-80
2023/06/16 10:28:25;;;;;;;4.37;4.20;;;;;;;;;;4955473;28;20908;-77
2023/06/16 10:30:51;;;;;;;6.60;6.27;;;;;;;;;;4946334;28;20469;-78
2023/06/16 10:33:18;;;;;;;4.73;4.37;;;;;;;;;;4940178;28;20516;-78
2023/06/16 10:35:55;;;;;;;6.10;5.50;;;;;;;;;;4979738;28;20469;-77
2023/06/16 10:38:33;;;;;;;4.40;4.30;;;;;;;;;;4987917;28;21186;-78
2023/06/16 10:41:01;;;;;;;4.43;4.23;;;;;;;;;;4973425;28;20539;-77
2023/06/16 10:43:27;;;;;;;5.47;5.37;;;;;;;;;;4986656;28;20410;-77
2023/06/16 10:46:13;;;;;;;5.00;4.60;;;;;;;;;;4966440;28;20814;-78
2023/06/16 10:49:10;;;;;;;4.40;4.40;;;;;;;;;;4969588;28;20555;-78
2023/06/16 10:51:47;;;;;;;4.77;4.57;;;;;;;;;;4993214;28;20919;-78
2023/06/16 10:54:14;;;;;;;4.87;4.60;;;;;;;;;;4989757;28;20495;-77
2023/06/16 10:57:12;;;;;;;4.50;4.20;;;;;;;;;;4965792;28;20444;-77
2023/06/16 10:59:56;;;;;;;5.00;4.60;;;;;;;;;;4958136;28;20491;-78
2023/06/16 11:02:23;;;;;;;5.60;5.40;;;;;;;;;;4967392;28;20458;-78
2023/06/16 11:05:07;;;;;;;5.23;4.90;;;;;;;;;;4985074;28;20436;-79
2023/06/16 11:07:42;;;;;;;5.40;4.80;;;;;;;;;;4980053;28;20456;-77
2023/06/16 11:10:09;;;;;;;4.83;4.67;;;;;;;;;;4989376;28;20450;-78
2023/06/16 11:12:36;;;;;;;4.70;4.60;;;;;;;;;;4967621;28;20514;-77
2023/06/16 11:15:03;;;;;;;4.63;4.53;;;;;;;;;;4969738;28;20437;-77
2023/06/16 11:17:29;;;;;;;4.97;4.87;;;;;;;;;;4965198;28;20448;-77
2023/06/16 11:19:55;;;;;;;4.70;4.47;;;;;;;;;;4974053;28;20436;-78
2023/06/16 11:22:31;;;;;;;4.70;4.57;;;;;;;;;;4979627;28;20451;-79
2023/06/16 11:24:59;;;;;;;4.13;4.03;;;;;;;;;;4974093;28;20531;-79
2023/06/16 11:27:26;;;;;;;5.07;4.67;;;;;;;;;;4966992;28;20496;-78
2023/06/16 11:29:53;;;;;;;5.00;4.60;;;;;;;;;;4967315;28;20433;-78
2023/06/16 11:32:22;;;;;;;5.30;5.20;;;;;;;;;;4964357;28;20472;-78
2023/06/16 11:34:48;;;;;;;4.87;4.67;;;;;;;;;;4978606;28;20462;-79
2023/06/16 11:37:14;;;;;;;5.27;4.90;;;;;;;;;;4963967;28;21031;-79
2023/06/16 11:39:46;;;;;;;5.70;5.30;;;;;;;;;;4988845;28;20424;-79
2023/06/16 11:42:16;;;;;;;4.73;4.53;;;;;;;;;;4966727;28;21084;-77
2023/06/16 11:44:45;;;;;;;4.30;4.23;;;;;;;;;;4974153;28;20496;-80
2023/06/16 11:47:12;;;;;;;5.00;4.63;;;;;;;;;;4969629;28;20471;-78
2023/06/16 11:49:38;;;;;;;7.13;5.00;;;;;;;;;;4968400;28;20448;-78
2023/06/16 11:52:06;;;;;;;5.67;5.27;;;;;;;;;;4980043;28;20476;-79
2023/06/16 11:54:36;;;;;;;5.67;5.37;;;;;;;;;;4969413;28;20449;-77
2023/06/16 11:57:02;;;;;;;5.27;4.80;;;;;;;;;;4974799;28;20476;-78
2023/06/16 11:59:32;;;;;;;6.23;4.60;;;;;;;;;;4975875;28;20470;-80
2023/06/16 12:01:59;;;;;;;6.73;6.30;;;;;;;;;;4978218;28;20487;-78
2023/06/16 12:04:26;;;;;;;6.00;5.70;;;;;;;;;;4968120;28;20533;-79
2023/06/16 12:06:56;;;;;;;6.13;5.57;;;;;;;;;;4975792;28;20463;-78
2023/06/16 12:09:24;;;;;;;5.17;5.07;;;;;;;;;;4970050;28;20455;-77
2023/06/16 12:11:50;;;;;;;6.47;6.17;;;;;;;;;;4977788;28;20504;-78
2023/06/16 12:14:22;;;;;;;5.10;4.90;;;;;;;;;;4974008;28;20457;-80
2023/06/16 12:16:50;;;;;;;5.43;5.13;;;;;;;;;;4976597;28;20538;-79
2023/06/16 12:19:20;;;;;;;5.07;4.87;;;;;;;;;;4971198;28;20508;-81
2023/06/16 12:22:00;;;;;;;4.60;4.50;;;;;;;;;;4978654;28;20461;-79
2023/06/16 12:24:27;;;;;;;5.47;4.97;;;;;;;;;;4993779;28;20455;-78
2023/06/16 12:26:53;;;;;;;4.90;4.70;;;;;;;;;;4976257;28;20549;-80
2023/06/16 12:29:20;;;;;;;4.33;4.23;;;;;;;;;;4969094;28;20449;-79
2023/06/16 12:31:53;;;;;;;4.43;4.20;;;;;;;;;;4979611;28;20409;-80
2023/06/16 12:34:33;;;;;;;6.30;6.00;;;;;;;;;;4969892;28;20473;-80
2023/06/16 12:37:03;;;;;;;4.63;4.40;;;;;;;;;;4979213;28;20408;-79
2023/06/16 12:39:30;;;;;;;4.60;4.50;;;;;;;;;;4976876;28;20453;-79
2023/06/16 12:42:03;;;;;;;4.60;4.50;;;;;;;;;;4987402;28;20464;-80
2023/06/16 12:44:48;;;;;;;5.40;4.90;;;;;;;;;;4970106;28;20511;-80
2023/06/16 12:47:15;;;;;;;4.53;4.37;;;;;;;;;;4970225;28;20904;-80
2023/06/16 12:49:41;;;;;;;4.57;4.47;;;;;;;;;;4976525;28;20452;-80
2023/06/16 12:52:09;;;;;;;5.23;4.73;;;;;;;;;;4977196;28;20428;-80
2023/06/16 12:54:35;;;;;;;5.10;4.70;;;;;;;;;;4972041;28;20453;-79
2023/06/16 12:57:01;;;;;;;4.60;4.50;;;;;;;;;;4975945;28;20753;-80
2023/06/16 12:59:28;;;;;;;4.90;4.70;;;;;;;;;;4964215;28;20455;-80
2023/06/16 13:01:54;;;;;;;5.23;5.03;;;;;;;;;;4975525;28;20468;-80
2023/06/16 13:04:20;;;;;;;5.70;5.60;;;;;;;;;;4969937;28;20437;-79
2023/06/16 13:06:47;;;;;;;5.77;5.57;;;;;;;;;;4976712;28;20488;-80
2023/06/16 13:09:13;;;;;;;5.90;5.57;;;;;;;;;;4970172;28;20526;-81
2023/06/16 13:11:40;;;;;;;6.20;5.80;;;;;;;;;;4971005;28;20544;-81